createdAt,value
2019-02-23T00:03:06.333Z,1023.75
2019-02-23T00:03:59.469Z,1023.63
2019-02-23T00:04:59.548Z,1023.73
2019-02-23T00:05:59.497Z,1023.64
2019-02-23T00:06:59.283Z,1023.61
2019-02-23T00:08:06.380Z,1023.60
2019-02-23T00:11:22.777Z,1023.61
2019-02-23T00:12:11.064Z,1023.59
2019-02-23T00:13:11.062Z,1023.63
2019-02-23T00:14:22.035Z,1023.59
2019-02-23T00:15:10.866Z,1023.61
2019-02-23T00:16:12.713Z,1023.61
2019-02-23T00:17:10.799Z,1023.56
2019-02-23T00:18:12.719Z,1023.63
2019-02-23T00:19:10.979Z,1023.60
2019-02-23T00:20:10.907Z,1023.57
2019-02-23T00:21:10.902Z,1023.48
2019-02-23T00:22:10.897Z,1023.53
2019-02-23T00:23:10.905Z,1023.50
2019-02-23T00:24:10.766Z,1023.54
2019-02-23T00:25:10.799Z,1023.52
2019-02-23T00:26:10.655Z,1023.51
2019-02-23T00:27:10.716Z,1023.48
2019-02-23T00:28:10.685Z,1023.52
2019-02-23T00:29:10.668Z,1023.48
2019-02-23T00:30:13.253Z,1023.59
2019-02-23T00:31:10.611Z,1023.52
2019-02-23T00:32:10.497Z,1023.53
2019-02-23T00:33:10.757Z,1023.55
2019-02-23T00:34:10.654Z,1023.55
2019-02-23T00:35:10.707Z,1023.56
2019-02-23T00:36:10.532Z,1023.59
2019-02-23T00:37:12.316Z,1023.57
2019-02-23T00:38:10.484Z,1023.53
2019-02-23T00:39:11.329Z,1023.52
2019-02-23T00:40:10.605Z,1023.59
2019-02-23T00:41:10.461Z,1023.53
2019-02-23T00:42:11.041Z,1023.49
2019-02-23T00:43:31.545Z,1023.55
2019-02-23T00:44:10.485Z,1023.44
2019-02-23T00:45:10.434Z,1023.50
2019-02-23T00:46:12.648Z,1023.41
2019-02-23T00:48:35.792Z,1023.57
2019-02-23T00:49:36.587Z,1023.42
2019-02-23T00:51:31.143Z,1023.38
2019-02-23T00:52:28.652Z,1023.35
2019-02-23T00:53:28.540Z,1023.23
2019-02-23T00:54:29.405Z,1023.25
2019-02-23T00:59:26.043Z,1023.13
2019-02-23T01:00:16.156Z,1023.01
2019-02-23T01:01:16.190Z,1023.03
2019-02-23T01:02:16.053Z,1022.96
2019-02-23T01:03:16.144Z,1022.91
2019-02-23T01:04:16.952Z,1022.83
2019-02-23T01:05:16.116Z,1022.79
2019-02-23T01:06:16.102Z,1022.73
2019-02-23T01:07:16.295Z,1022.70
2019-02-23T01:08:16.188Z,1022.67
2019-02-23T01:09:15.949Z,1022.66
2019-02-23T01:10:16.078Z,1022.60
2019-02-23T01:11:16.110Z,1022.62
2019-02-23T01:12:16.531Z,1022.57
2019-02-23T01:13:15.822Z,1022.60
2019-02-23T01:14:15.843Z,1022.71
2019-02-23T01:15:15.999Z,1022.70
2019-02-23T01:16:15.864Z,1022.72
2019-02-23T01:17:17.669Z,1022.71
2019-02-23T01:18:18.461Z,1022.70
2019-02-23T01:19:15.796Z,1022.61
2019-02-23T01:20:16.145Z,1022.72
2019-02-23T01:21:16.587Z,1022.66
2019-02-23T01:22:15.922Z,1022.69
2019-02-23T01:23:15.734Z,1022.64
2019-02-23T01:24:17.419Z,1022.63
2019-02-23T01:25:15.777Z,1022.66
2019-02-23T01:26:15.624Z,1022.69
2019-02-23T01:27:16.702Z,1022.55
2019-02-23T01:28:15.748Z,1022.47
2019-02-23T01:29:15.627Z,1022.51
2019-02-23T01:30:15.626Z,1022.44
2019-02-23T01:33:13.631Z,1022.42
2019-02-23T01:33:55.795Z,1022.37
2019-02-23T01:37:16.829Z,1022.17
2019-02-23T01:38:16.682Z,1022.13
2019-02-23T01:39:18.437Z,1022.19
2019-02-23T01:40:16.634Z,1022.14
2019-02-23T01:41:16.656Z,1022.07
2019-02-23T01:42:16.550Z,1022.09
2019-02-23T01:43:17.763Z,1022.04
2019-02-23T01:44:16.499Z,1022.03
2019-02-23T01:45:16.760Z,1022.02
2019-02-23T01:46:17.455Z,1021.93
2019-02-23T01:47:16.473Z,1021.91
2019-02-23T01:48:17.444Z,1021.86
2019-02-23T01:49:17.061Z,1021.80
2019-02-23T01:50:17.051Z,1021.84
2019-02-23T01:51:17.017Z,1021.80
2019-02-23T01:52:18.987Z,1021.72
2019-02-23T01:53:16.509Z,1021.68
2019-02-23T01:54:16.928Z,1021.75
2019-02-23T01:55:16.485Z,1021.77
2019-02-23T01:56:17.234Z,1021.74
2019-02-23T01:57:18.982Z,1021.76
2019-02-23T01:58:17.105Z,1021.70
2019-02-23T01:59:16.463Z,1021.71
2019-02-23T02:00:17.069Z,1021.68
2019-02-23T02:01:16.257Z,1021.75
2019-02-23T02:02:19.012Z,1021.78
2019-02-23T02:03:16.349Z,1021.75
2019-02-23T02:04:16.315Z,1021.79
2019-02-23T02:05:16.127Z,1021.77
2019-02-23T02:06:16.966Z,1021.81
2019-02-23T02:07:17.239Z,1021.88
2019-02-23T02:08:16.233Z,1021.89
2019-02-23T02:09:16.783Z,1021.93
2019-02-23T02:10:19.131Z,1021.89
2019-02-23T02:11:17.054Z,1021.89
2019-02-23T02:12:16.138Z,1021.98
2019-02-23T02:13:16.079Z,1021.91
2019-02-23T02:14:17.546Z,1021.94
2019-02-23T02:15:18.518Z,1021.88
2019-02-23T02:16:16.144Z,1021.93
2019-02-23T02:17:15.998Z,1021.98
2019-02-23T02:18:16.478Z,1021.87
2019-02-23T02:19:16.094Z,1021.89
2019-02-23T02:20:16.583Z,1021.78
2019-02-23T02:21:24.913Z,1021.75
2019-02-23T02:23:09.190Z,1021.75
2019-02-23T02:24:13.767Z,1021.72
2019-02-23T02:25:09.233Z,1021.74
2019-02-23T02:26:09.193Z,1021.69
2019-02-23T02:29:29.048Z,1021.60
2019-02-23T02:30:28.496Z,1021.70
2019-02-23T02:31:28.465Z,1021.56
2019-02-23T02:32:28.527Z,1021.68
2019-02-23T02:33:28.408Z,1021.61
2019-02-23T02:34:28.476Z,1021.65
2019-02-23T02:35:30.239Z,1021.60
2019-02-23T02:36:28.462Z,1021.66
2019-02-23T02:37:28.543Z,1021.65
2019-02-23T02:38:28.371Z,1021.59
2019-02-23T02:39:28.362Z,1021.60
2019-02-23T02:40:28.296Z,1021.65
2019-02-23T02:41:28.215Z,1021.54
2019-02-23T02:42:31.081Z,1021.48
2019-02-23T02:43:29.175Z,1021.47
2019-02-23T02:44:28.318Z,1021.41
2019-02-23T02:45:28.258Z,1021.37
2019-02-23T02:46:28.169Z,1021.34
2019-02-23T02:47:28.272Z,1021.31
2019-02-23T02:48:28.166Z,1021.23
2019-02-23T02:49:28.180Z,1021.17
2019-02-23T02:50:28.028Z,1021.18
2019-02-23T02:51:28.004Z,1021.23
2019-02-23T02:52:28.115Z,1021.27
2019-02-23T02:53:28.587Z,1021.20
2019-02-23T02:54:28.177Z,1021.17
2019-02-23T02:55:27.868Z,1021.22
2019-02-23T02:56:28.526Z,1021.23
2019-02-23T02:57:28.023Z,1021.14
2019-02-23T02:58:27.956Z,1021.30
2019-02-23T02:59:32.768Z,1021.33
2019-02-23T03:00:32.624Z,1021.46
2019-02-23T03:01:27.981Z,1021.39
2019-02-23T03:02:27.982Z,1021.35
2019-02-23T03:03:27.820Z,1021.41
2019-02-23T03:04:28.057Z,1021.37
2019-02-23T03:05:27.996Z,1021.36
2019-02-23T03:06:27.731Z,1021.32
2019-02-23T03:07:28.614Z,1021.29
2019-02-23T03:08:27.649Z,1021.38
2019-02-23T03:09:27.610Z,1021.29
2019-02-23T03:10:27.825Z,1021.19
2019-02-23T03:11:27.944Z,1021.26
2019-02-23T03:12:27.890Z,1021.23
2019-02-23T03:13:27.594Z,1021.33
2019-02-23T03:14:27.677Z,1021.32
2019-02-23T03:15:27.786Z,1021.29
2019-02-23T03:16:29.617Z,1021.09
2019-02-23T03:17:28.124Z,1021.09
2019-02-23T03:18:38.045Z,1021.09
2019-02-23T03:19:27.597Z,1021.03
2019-02-23T03:20:36.615Z,1021.04
2019-02-23T03:21:27.561Z,1020.99
2019-02-23T03:22:29.968Z,1020.92
2019-02-23T03:23:27.518Z,1020.83
2019-02-23T03:24:27.351Z,1020.70
2019-02-23T03:25:27.316Z,1020.78
2019-02-23T03:26:28.095Z,1020.67
2019-02-23T03:27:28.102Z,1020.53
2019-02-23T03:28:27.554Z,1020.49
2019-02-23T03:29:27.375Z,1020.36
2019-02-23T03:30:27.357Z,1020.35
2019-02-23T03:31:28.279Z,1020.37
2019-02-23T03:32:27.307Z,1020.37
2019-02-23T03:33:27.438Z,1020.48
2019-02-23T03:34:27.265Z,1020.46
2019-02-23T03:35:27.409Z,1020.52
2019-02-23T03:36:27.183Z,1020.31
2019-02-23T03:37:27.137Z,1020.42
2019-02-23T03:38:27.278Z,1020.31
2019-02-23T03:39:26.991Z,1020.26
2019-02-23T03:40:27.101Z,1020.18
2019-02-23T03:41:27.145Z,1020.16
2019-02-23T03:42:27.108Z,1020.12
2019-02-23T03:43:27.364Z,1020.09
2019-02-23T03:44:27.140Z,1020.17
2019-02-23T03:45:27.094Z,1020.13
2019-02-23T03:46:26.881Z,1020.02
2019-02-23T03:47:27.126Z,1019.92
2019-02-23T03:48:27.768Z,1019.93
2019-02-23T03:49:27.078Z,1019.86
2019-02-23T03:50:29.558Z,1019.89
2019-02-23T03:51:27.061Z,1019.86
2019-02-23T03:52:26.796Z,1019.91
2019-02-23T03:53:26.840Z,1019.71
2019-02-23T03:54:26.803Z,1019.58
2019-02-23T03:55:26.765Z,1019.40
2019-02-23T03:56:26.849Z,1019.24
2019-02-23T03:57:26.756Z,1019.22
2019-02-23T03:58:27.106Z,1019.32
2019-02-23T03:59:31.563Z,1019.45
2019-02-23T04:00:26.662Z,1019.81
2019-02-23T04:01:26.810Z,1020.15
2019-02-23T04:02:26.738Z,1020.19
2019-02-23T04:03:26.674Z,1020.15
2019-02-23T04:04:26.636Z,1020.02
2019-02-23T04:05:26.726Z,1019.82
2019-02-23T04:06:26.730Z,1019.82
2019-02-23T04:07:26.602Z,1019.68
2019-02-23T04:08:26.643Z,1019.71
2019-02-23T04:09:26.640Z,1019.67
2019-02-23T04:10:26.408Z,1019.53
2019-02-23T04:11:26.662Z,1019.58
2019-02-23T04:12:26.398Z,1019.52
2019-02-23T04:13:26.508Z,1019.76
2019-02-23T04:14:26.541Z,1019.86
2019-02-23T04:15:26.358Z,1019.85
2019-02-23T04:16:26.407Z,1019.67
2019-02-23T04:17:33.068Z,1019.76
2019-02-23T04:18:26.423Z,1020.06
2019-02-23T04:19:26.465Z,1020.03
2019-02-23T04:20:27.069Z,1020.04
2019-02-23T04:21:28.082Z,1019.98
2019-02-23T04:22:26.342Z,1020.00
2019-02-23T04:23:26.234Z,1020.08
2019-02-23T04:24:26.932Z,1020.10
2019-02-23T04:25:27.101Z,1020.01
2019-02-23T04:26:26.181Z,1019.97
2019-02-23T04:27:28.063Z,1019.84
2019-02-23T04:28:27.143Z,1019.69
2019-02-23T04:29:26.231Z,1019.71
2019-02-23T04:30:26.176Z,1019.61
2019-02-23T04:31:33.143Z,1019.60
2019-02-23T04:32:26.045Z,1019.58
2019-02-23T04:33:27.032Z,1019.68
2019-02-23T04:34:36.678Z,1019.66
2019-02-23T04:35:26.536Z,1019.65
2019-02-23T04:36:25.984Z,1019.73
2019-02-23T04:37:26.029Z,1019.75
2019-02-23T04:38:26.021Z,1019.76
2019-02-23T04:39:26.498Z,1019.86
2019-02-23T04:40:28.745Z,1019.74
2019-02-23T04:41:26.010Z,1019.86
2019-02-23T04:42:25.874Z,1019.88
2019-02-23T04:43:25.857Z,1019.77
2019-02-23T04:44:25.850Z,1019.71
2019-02-23T04:45:25.876Z,1019.77
2019-02-23T04:46:25.817Z,1019.75
2019-02-23T04:47:25.982Z,1019.81
2019-02-23T04:48:25.857Z,1019.92
2019-02-23T04:49:26.157Z,1019.99
2019-02-23T04:50:25.864Z,1020.07
2019-02-23T04:51:28.739Z,1019.98
2019-02-23T04:52:25.756Z,1019.81
2019-02-23T04:53:26.543Z,1019.80
2019-02-23T04:54:25.808Z,1019.80
2019-02-23T04:55:25.762Z,1019.71
2019-02-23T04:56:25.636Z,1019.46
2019-02-23T04:57:25.745Z,1019.61
2019-02-23T04:58:25.733Z,1019.67
2019-02-23T04:59:27.649Z,1019.76
2019-02-23T05:00:27.184Z,1019.89
2019-02-23T05:01:25.468Z,1019.99
2019-02-23T05:02:25.671Z,1020.00
2019-02-23T05:03:28.196Z,1019.97
2019-02-23T05:04:25.630Z,1019.95
2019-02-23T05:05:25.416Z,1019.96
2019-02-23T05:06:25.503Z,1020.07
2019-02-23T05:07:25.449Z,1019.95
2019-02-23T05:08:25.491Z,1020.01
2019-02-23T05:09:25.382Z,1020.01
2019-02-23T05:10:25.521Z,1020.02
2019-02-23T05:12:25.395Z,1020.17
2019-02-23T05:13:25.285Z,1019.88
2019-02-23T05:14:25.386Z,1019.88
2019-02-23T05:15:26.134Z,1019.77
2019-02-23T05:16:26.158Z,1019.82
2019-02-23T05:17:25.416Z,1019.81
2019-02-23T05:18:25.340Z,1019.84
2019-02-23T05:19:28.070Z,1019.89
2019-02-23T05:20:26.046Z,1020.08
2019-02-23T05:21:26.818Z,1020.20
2019-02-23T05:22:25.128Z,1020.29
2019-02-23T05:23:25.131Z,1020.40
2019-02-23T05:24:25.249Z,1020.37
2019-02-23T05:25:46.275Z,1020.30
2019-02-23T05:26:26.651Z,1020.30
2019-02-23T05:27:29.613Z,1020.24
2019-02-23T05:28:25.107Z,1020.29
2019-02-23T05:29:25.067Z,1020.29
2019-02-23T05:30:25.587Z,1020.46
2019-02-23T05:31:29.534Z,1020.29
2019-02-23T05:32:25.009Z,1020.27
2019-02-23T05:33:24.976Z,1020.23
2019-02-23T05:34:24.971Z,1020.04
2019-02-23T05:35:26.545Z,1020.14
2019-02-23T05:36:24.917Z,1020.11
2019-02-23T05:37:29.613Z,1020.22
2019-02-23T05:38:24.881Z,1020.30
2019-02-23T05:39:24.888Z,1020.31
2019-02-23T05:40:25.520Z,1020.30
2019-02-23T05:41:24.809Z,1020.31
2019-02-23T05:42:24.865Z,1020.15
2019-02-23T05:43:24.942Z,1020.17
2019-02-23T05:44:24.864Z,1020.28
2019-02-23T05:45:29.596Z,1020.18
2019-02-23T05:46:24.761Z,1020.01
2019-02-23T05:47:24.747Z,1019.87
2019-02-23T05:48:24.706Z,1019.69
2019-02-23T05:49:24.715Z,1019.56
2019-02-23T05:50:24.603Z,1019.47
2019-02-23T05:51:25.589Z,1019.58
2019-02-23T05:52:24.498Z,1019.62
2019-02-23T05:53:38.996Z,1019.67
2019-02-23T05:54:24.481Z,1019.70
2019-02-23T05:55:24.622Z,1019.83
2019-02-23T05:56:24.502Z,1019.99
2019-02-23T05:57:24.537Z,1020.03
2019-02-23T05:58:24.481Z,1019.90
2019-02-23T05:59:26.006Z,1020.10
2019-02-23T06:00:25.112Z,1020.01
2019-02-23T06:01:24.322Z,1020.11
2019-02-23T06:02:27.121Z,1020.07
2019-02-23T06:03:24.417Z,1019.98
2019-02-23T06:04:24.667Z,1020.07
2019-02-23T06:05:27.107Z,1020.05
2019-02-23T06:06:24.485Z,1020.03
2019-02-23T06:07:27.242Z,1019.95
2019-02-23T06:08:27.086Z,1020.00
2019-02-23T06:09:24.286Z,1019.99
2019-02-23T06:10:24.186Z,1020.00
2019-02-23T06:12:25.075Z,1019.88
2019-02-23T06:13:25.390Z,1019.92
2019-02-23T06:14:26.032Z,1019.79
2019-02-23T06:15:26.166Z,1019.79
2019-02-23T06:16:24.132Z,1019.80
2019-02-23T06:17:25.083Z,1019.81
2019-02-23T06:18:27.219Z,1019.79
2019-02-23T06:19:25.801Z,1019.79
2019-02-23T06:20:24.055Z,1019.75
2019-02-23T06:21:24.310Z,1019.75
2019-02-23T06:22:23.935Z,1019.65
2019-02-23T06:23:26.615Z,1019.72
2019-02-23T06:24:24.086Z,1019.56
2019-02-23T06:25:30.847Z,1019.71
2019-02-23T06:26:24.083Z,1019.59
2019-02-23T06:27:23.921Z,1019.39
2019-02-23T06:28:23.933Z,1019.26
2019-02-23T06:29:28.693Z,1019.13
2019-02-23T06:30:23.841Z,1019.14
2019-02-23T06:31:26.772Z,1019.14
2019-02-23T06:32:23.944Z,1019.19
2019-02-23T06:33:23.846Z,1019.15
2019-02-23T06:34:23.877Z,1019.13
2019-02-23T06:35:24.648Z,1019.11
2019-02-23T06:36:23.860Z,1019.07
2019-02-23T06:37:23.721Z,1019.09
2019-02-23T06:38:24.825Z,1019.04
2019-02-23T06:39:23.798Z,1018.99
2019-02-23T06:40:28.548Z,1018.99
2019-02-23T06:41:28.610Z,1018.82
2019-02-23T06:42:24.786Z,1018.77
2019-02-23T06:43:24.964Z,1018.77
2019-02-23T06:44:23.674Z,1018.97
2019-02-23T06:45:34.185Z,1019.13
2019-02-23T06:46:23.669Z,1019.31
2019-02-23T06:47:23.558Z,1019.47
2019-02-23T06:48:25.019Z,1019.48
2019-02-23T06:49:24.079Z,1019.47
2019-02-23T06:50:25.192Z,1019.46
2019-02-23T06:51:23.526Z,1019.49
2019-02-23T06:52:23.456Z,1019.47
2019-02-23T06:53:23.481Z,1019.57
2019-02-23T06:54:38.253Z,1019.32
2019-02-23T06:55:25.166Z,1019.36
2019-02-23T06:57:25.149Z,1019.30
2019-02-23T06:58:23.411Z,1019.27
2019-02-23T06:59:23.477Z,1019.27
2019-02-23T07:00:25.236Z,1019.38
2019-02-23T07:01:23.406Z,1019.50
2019-02-23T07:02:24.117Z,1019.47
2019-02-23T07:03:24.302Z,1019.41
2019-02-23T07:04:23.394Z,1019.35
2019-02-23T07:05:23.429Z,1019.34
2019-02-23T07:06:25.214Z,1019.43
2019-02-23T07:07:23.209Z,1019.53
2019-02-23T07:08:25.289Z,1019.50
2019-02-23T07:09:23.227Z,1019.49
2019-02-23T07:10:34.210Z,1019.51
2019-02-23T07:12:24.224Z,1019.47
2019-02-23T07:13:29.676Z,1019.42
2019-02-23T07:14:23.233Z,1019.40
2019-02-23T07:15:27.506Z,1019.37
2019-02-23T07:16:22.987Z,1019.35
2019-02-23T07:17:27.637Z,1019.32
2019-02-23T07:18:27.736Z,1019.40
2019-02-23T07:19:23.126Z,1019.23
2019-02-23T07:20:24.734Z,1019.29
2019-02-23T07:21:23.044Z,1019.41
2019-02-23T07:22:24.705Z,1019.48
2019-02-23T07:23:22.929Z,1019.48
2019-02-23T07:24:25.633Z,1019.50
2019-02-23T07:25:23.011Z,1019.49
2019-02-23T07:26:22.915Z,1019.29
2019-02-23T07:27:24.582Z,1019.34
2019-02-23T07:28:23.224Z,1019.29
2019-02-23T07:29:24.602Z,1019.26
2019-02-23T07:30:22.774Z,1019.26
2019-02-23T07:31:23.666Z,1019.32
2019-02-23T07:32:24.726Z,1019.33
2019-02-23T07:33:32.864Z,1019.33
2019-02-23T07:34:22.846Z,1019.24
2019-02-23T07:35:23.818Z,1019.24
2019-02-23T07:36:22.775Z,1019.15
2019-02-23T07:37:23.613Z,1019.13
2019-02-23T07:38:44.568Z,1019.16
2019-02-23T07:40:37.316Z,1019.18
2019-02-23T07:41:27.210Z,1019.04
2019-02-23T07:42:22.665Z,1019.13
2019-02-23T07:43:24.144Z,1019.20
2019-02-23T07:44:22.771Z,1019.25
2019-02-23T07:45:22.712Z,1019.31
2019-02-23T07:46:22.486Z,1019.23
2019-02-23T07:47:29.106Z,1019.22
2019-02-23T07:48:22.641Z,1019.10
2019-02-23T07:49:27.305Z,1019.07
2019-02-23T07:50:24.341Z,1019.08
2019-02-23T07:52:31.215Z,1018.96
2019-02-23T07:54:40.303Z,1019.07
2019-02-23T07:55:17.570Z,1019.01
2019-02-23T07:58:44.711Z,1019.09
2019-02-23T07:59:38.508Z,1019.05
2019-02-23T08:00:38.556Z,1019.12
2019-02-23T08:01:38.583Z,1019.17
2019-02-23T08:02:38.443Z,1019.15
2019-02-23T08:03:41.228Z,1019.12
2019-02-23T08:04:39.421Z,1019.13
2019-02-23T08:05:39.485Z,1019.19
2019-02-23T08:06:40.324Z,1019.29
2019-02-23T08:07:39.900Z,1019.24
2019-02-23T08:08:38.375Z,1019.25
2019-02-23T08:09:38.301Z,1019.20
2019-02-23T08:10:59.273Z,1019.26
2019-02-23T08:11:40.701Z,1019.19
2019-02-23T08:12:40.866Z,1019.23
2019-02-23T08:13:49.164Z,1019.09
2019-02-23T08:14:38.423Z,1019.07
2019-02-23T08:15:38.736Z,1019.04
2019-02-23T08:16:38.242Z,1019.01
2019-02-23T08:17:38.416Z,1018.92
2019-02-23T08:18:38.176Z,1018.96
2019-02-23T08:19:38.800Z,1019.06
2019-02-23T08:21:05.790Z,1019.14
2019-02-23T08:21:38.251Z,1019.09
2019-02-23T08:22:38.748Z,1019.02
2019-02-23T08:23:39.774Z,1019.00
2019-02-23T08:24:38.201Z,1018.96
2019-02-23T08:25:38.122Z,1018.94
2019-02-23T08:26:38.129Z,1019.08
2019-02-23T08:27:38.692Z,1019.07
2019-02-23T08:28:38.139Z,1019.00
2019-02-23T08:29:38.435Z,1019.03
2019-02-23T08:30:44.765Z,1018.98
2019-02-23T08:31:37.967Z,1018.92
2019-02-23T08:32:37.883Z,1018.94
2019-02-23T08:33:37.909Z,1018.80
2019-02-23T08:34:39.731Z,1018.97
2019-02-23T08:35:43.016Z,1019.00
2019-02-23T08:36:37.899Z,1018.89
2019-02-23T08:37:38.920Z,1018.90
2019-02-23T08:38:38.136Z,1018.91
2019-02-23T08:39:37.927Z,1018.95
2019-02-23T08:40:37.784Z,1019.04
2019-02-23T08:41:37.866Z,1018.94
2019-02-23T08:42:44.203Z,1018.97
2019-02-23T08:43:48.638Z,1019.08
2019-02-23T08:45:37.647Z,1019.00
2019-02-23T08:46:40.433Z,1019.01
2019-02-23T08:47:38.357Z,1018.98
2019-02-23T08:48:38.395Z,1018.95
2019-02-23T08:49:37.718Z,1019.00
2019-02-23T08:50:38.342Z,1019.01
2019-02-23T08:52:48.165Z,1018.95
2019-02-23T08:53:39.318Z,1018.93
2019-02-23T08:55:00.368Z,1018.87
2019-02-23T08:55:38.355Z,1018.85
2019-02-23T08:56:37.631Z,1018.84
2019-02-23T08:57:37.590Z,1018.90
2019-02-23T08:58:37.521Z,1018.93
2019-02-23T08:59:38.343Z,1018.94
2019-02-23T09:00:44.365Z,1019.00
2019-02-23T09:01:59.357Z,1018.94
2019-02-23T09:02:44.235Z,1018.94
2019-02-23T09:03:38.212Z,1019.00
2019-02-23T09:04:39.332Z,1019.02
2019-02-23T09:06:40.504Z,1019.08
2019-02-23T09:08:37.390Z,1019.10
2019-02-23T09:09:37.956Z,1019.10
2019-02-23T09:10:38.458Z,1019.09
2019-02-23T09:14:06.303Z,1019.05
2019-02-23T09:17:44.276Z,1018.94
2019-02-23T09:18:29.064Z,1018.94
2019-02-23T09:19:28.431Z,1018.86
2019-02-23T09:20:29.694Z,1018.83
2019-02-23T09:21:43.343Z,1018.86
2019-02-23T09:22:31.120Z,1018.88
2019-02-23T09:23:28.432Z,1018.90
2019-02-23T09:24:29.285Z,1018.88
2019-02-23T09:25:28.313Z,1018.87
2019-02-23T09:26:28.309Z,1018.87
2019-02-23T09:27:43.091Z,1018.86
2019-02-23T09:28:31.253Z,1018.92
2019-02-23T09:29:31.215Z,1018.87
2019-02-23T09:30:30.185Z,1018.88
2019-02-23T09:31:28.130Z,1018.84
2019-02-23T09:32:28.221Z,1018.95
2019-02-23T09:33:28.489Z,1018.89
2019-02-23T09:34:34.671Z,1018.81
2019-02-23T09:35:28.206Z,1018.79
2019-02-23T09:36:28.136Z,1018.76
2019-02-23T09:37:42.725Z,1018.75
2019-02-23T09:38:28.820Z,1018.73
2019-02-23T09:39:32.604Z,1018.72
2019-02-23T09:40:28.144Z,1018.70
2019-02-23T09:41:32.730Z,1018.75
2019-02-23T09:42:28.066Z,1018.78
2019-02-23T09:43:28.208Z,1018.80
2019-02-23T09:44:38.729Z,1018.84
2019-02-23T09:45:28.089Z,1018.80
2019-02-23T09:46:32.626Z,1018.89
2019-02-23T09:47:42.677Z,1018.87
2019-02-23T09:49:06.840Z,1018.91
2019-02-23T09:49:49.793Z,1018.85
2019-02-23T09:50:59.761Z,1018.76
2019-02-23T09:51:28.038Z,1018.79
2019-02-23T09:52:27.854Z,1018.75
2019-02-23T09:53:28.041Z,1018.85
2019-02-23T09:54:30.042Z,1018.81
2019-02-23T09:55:30.637Z,1018.72
2019-02-23T09:56:42.747Z,1018.78
2019-02-23T09:57:34.628Z,1018.82
2019-02-23T09:58:31.228Z,1018.77
2019-02-23T09:59:27.883Z,1018.67
2019-02-23T10:00:28.732Z,1018.71
2019-02-23T10:01:28.835Z,1018.65
2019-02-23T10:02:30.645Z,1018.64
2019-02-23T10:03:29.706Z,1018.66
2019-02-23T10:04:28.821Z,1018.59
2019-02-23T10:06:27.746Z,1018.66
2019-02-23T10:07:28.785Z,1018.63
2019-02-23T10:08:34.648Z,1018.70
2019-02-23T10:09:59.370Z,1018.70
2019-02-23T10:10:29.837Z,1018.74
2019-02-23T10:11:38.627Z,1018.71
2019-02-23T10:12:32.231Z,1018.79
2019-02-23T10:13:27.738Z,1018.78
2019-02-23T10:17:13.210Z,1018.79
2019-02-23T10:19:57.540Z,1018.80
2019-02-23T10:21:36.153Z,1018.78
2019-02-23T10:22:30.473Z,1018.85
2019-02-23T10:23:35.077Z,1018.79
2019-02-23T10:24:30.466Z,1018.79
2019-02-23T10:25:52.030Z,1018.85
2019-02-23T10:26:45.633Z,1018.97
2019-02-23T10:29:04.602Z,1018.97
2019-02-23T10:32:39.467Z,1018.96
2019-02-23T10:33:28.818Z,1019.03
2019-02-23T10:34:56.246Z,1019.08
2019-02-23T10:35:24.374Z,1019.05
2019-02-23T10:36:56.055Z,1018.99
2019-02-23T10:37:24.994Z,1018.94
2019-02-23T10:38:25.913Z,1018.90
2019-02-23T10:39:24.440Z,1018.94
2019-02-23T10:40:25.509Z,1018.89
2019-02-23T10:41:24.386Z,1018.89
2019-02-23T10:42:25.896Z,1018.88
2019-02-23T10:43:38.934Z,1018.88
2019-02-23T10:44:56.145Z,1018.85
2019-02-23T10:47:28.529Z,1018.83
2019-02-23T10:51:20.582Z,1018.76
2019-02-23T10:51:56.603Z,1018.70
2019-02-23T10:54:16.984Z,1018.79
2019-02-23T10:58:09.375Z,1018.84
2019-02-23T11:04:50.835Z,1018.79
2019-02-23T11:19:15.367Z,1018.80
2019-02-23T11:21:22.429Z,1018.89
2019-02-23T11:22:13.864Z,1018.81
2019-02-23T11:23:15.926Z,1018.94
2019-02-23T11:24:15.522Z,1018.98
2019-02-23T11:25:13.891Z,1018.94
2019-02-23T11:27:13.918Z,1018.93
2019-02-23T11:28:13.855Z,1018.89
2019-02-23T11:29:17.071Z,1018.90
2019-02-23T11:30:16.327Z,1018.85
2019-02-23T11:31:15.485Z,1018.87
2019-02-23T11:33:13.935Z,1018.93
2019-02-23T11:34:13.839Z,1018.96
2019-02-23T11:35:16.984Z,1018.89
2019-02-23T11:36:13.877Z,1018.86
2019-02-23T11:37:14.770Z,1018.94
2019-02-23T11:38:13.775Z,1018.92
2019-02-23T11:39:16.051Z,1018.96
2019-02-23T11:40:13.907Z,1018.96
2019-02-23T11:41:13.865Z,1018.85
2019-02-23T11:42:14.437Z,1018.85
2019-02-23T11:43:13.843Z,1018.85
2019-02-23T11:44:15.870Z,1018.89
2019-02-23T11:45:15.996Z,1018.79
2019-02-23T11:46:13.912Z,1018.78
2019-02-23T11:47:13.951Z,1018.81
2019-02-23T11:48:13.831Z,1018.79
2019-02-23T11:49:14.478Z,1018.77
2019-02-23T11:50:13.818Z,1018.84
2019-02-23T11:51:15.967Z,1018.77
2019-02-23T11:52:13.934Z,1018.78
2019-02-23T11:53:15.536Z,1018.78
2019-02-23T11:54:13.940Z,1018.69
2019-02-23T11:55:13.899Z,1018.67
2019-02-23T11:56:13.903Z,1018.60
2019-02-23T11:57:13.891Z,1018.56
2019-02-23T11:58:15.430Z,1018.52
2019-02-23T11:59:15.450Z,1018.48
2019-02-23T12:00:13.902Z,1018.49
2019-02-23T12:02:14.967Z,1018.40
2019-02-23T12:45:39.238Z,1018.06
2019-02-23T12:48:20.167Z,1018.01
2019-02-23T13:15:40.739Z,1017.47
2019-02-23T13:16:52.720Z,1017.47
2019-02-23T13:17:41.048Z,1017.46
2019-02-23T13:18:38.941Z,1017.42
2019-02-23T13:19:44.746Z,1017.51
2019-02-23T13:20:37.728Z,1017.52
2019-02-23T13:21:37.975Z,1017.47
2019-02-23T13:22:38.766Z,1017.48
2019-02-23T13:23:39.806Z,1017.45
2019-02-23T13:24:37.781Z,1017.42
2019-02-23T13:25:37.779Z,1017.38
2019-02-23T13:26:37.660Z,1017.33
2019-02-23T13:27:37.776Z,1017.34
2019-02-23T13:28:42.365Z,1017.33
2019-02-23T13:29:37.919Z,1017.34
2019-02-23T13:30:37.966Z,1017.30
2019-02-23T13:31:37.734Z,1017.32
2019-02-23T13:32:39.331Z,1017.27
2019-02-23T13:33:37.835Z,1017.30
2019-02-23T13:34:37.747Z,1017.30
2019-02-23T13:35:44.310Z,1017.27
2019-02-23T13:36:38.314Z,1017.25
2019-02-23T13:37:38.600Z,1017.25
2019-02-23T13:38:42.462Z,1017.29
2019-02-23T13:39:37.683Z,1017.30
2019-02-23T13:40:37.689Z,1017.29
2019-02-23T13:41:37.983Z,1017.30
2019-02-23T13:42:37.790Z,1017.33
2019-02-23T13:43:38.330Z,1017.27
2019-02-23T13:44:37.684Z,1017.26
2019-02-23T13:45:38.439Z,1017.27
2019-02-23T13:47:37.703Z,1017.42
2019-02-23T13:48:37.661Z,1017.34
2019-02-23T13:52:47.916Z,1017.35
2019-02-23T13:55:37.992Z,1017.27
2019-02-23T13:56:28.753Z,1017.25
2019-02-23T14:00:04.052Z,1017.30
2019-02-23T14:01:00.781Z,1017.28
2019-02-23T14:03:04.083Z,1017.31
2019-02-23T14:03:54.612Z,1017.25
2019-02-23T14:05:00.661Z,1017.28
2019-02-23T14:05:54.464Z,1017.34
2019-02-23T14:06:55.574Z,1017.39
2019-02-23T14:07:53.916Z,1017.30
2019-02-23T14:08:56.570Z,1017.37
2019-02-23T14:09:56.322Z,1017.34
2019-02-23T14:11:00.469Z,1017.30
2019-02-23T14:11:54.323Z,1017.37
2019-02-23T14:12:53.972Z,1017.35
2019-02-23T14:13:58.573Z,1017.32
2019-02-23T14:14:58.346Z,1017.36
2019-02-23T14:16:14.700Z,1017.35
2019-02-23T14:16:53.983Z,1017.38
2019-02-23T14:17:53.804Z,1017.36
2019-02-23T14:18:54.320Z,1017.36
2019-02-23T14:19:55.314Z,1017.34
2019-02-23T14:21:58.422Z,1017.31
2019-02-23T14:23:14.611Z,1017.29
2019-02-23T14:28:03.251Z,1017.24
2019-02-23T14:28:51.488Z,1017.27
2019-02-23T14:30:06.387Z,1017.20
2019-02-23T14:31:12.604Z,1017.18
2019-02-23T14:31:54.483Z,1017.17
2019-02-23T14:32:58.292Z,1017.18
2019-02-23T14:33:51.428Z,1017.19
2019-02-23T14:34:53.360Z,1017.21
2019-02-23T14:36:12.320Z,1017.20
2019-02-23T14:36:52.241Z,1017.22
2019-02-23T14:37:51.479Z,1017.14
2019-02-23T14:38:53.203Z,1017.22
2019-02-23T14:39:53.468Z,1017.22
2019-02-23T14:40:53.424Z,1017.23
2019-02-23T14:41:53.376Z,1017.26
2019-02-23T14:42:51.407Z,1017.31
2019-02-23T14:44:19.433Z,1017.31
2019-02-23T14:44:52.299Z,1017.39
2019-02-23T14:46:51.820Z,1017.45
2019-02-23T14:47:55.793Z,1017.40
2019-02-23T14:48:51.351Z,1017.36